sensor_id;sensor_type;location;lat;lon;timestamp;P1;durP1;ratioP1;P2;durP2;ratioP2
20776;SDS011;10548;47.504;8.248;2023-03-03T00:00:15;80.03;;;39.87;;
20776;SDS011;10548;47.504;8.248;2023-03-03T00:02:43;76.07;;;39.30;;
20776;SDS011;10548;47.504;8.248;2023-03-03T00:05:11;83.83;;;41.20;;
20776;SDS011;10548;47.504;8.248;2023-03-03T00:07:43;71.90;;;36.80;;
20776;SDS011;10548;47.504;8.248;2023-03-03T00:10:11;75.13;;;38.73;;
20776;SDS011;10548;47.504;8.248;2023-03-03T00:12:48;76.50;;;37.50;;
20776;SDS011;10548;47.504;8.248;2023-03-03T00:15:17;89.40;;;40.23;;
20776;SDS011;10548;47.504;8.248;2023-03-03T00:17:45;83.23;;;40.87;;
20776;SDS011;10548;47.504;8.248;2023-03-03T00:20:21;84.93;;;39.60;;
20776;SDS011;10548;47.504;8.248;2023-03-03T00:22:52;76.50;;;36.43;;
20776;SDS011;10548;47.504;8.248;2023-03-03T00:28:17;82.03;;;38.73;;
20776;SDS011;10548;47.504;8.248;2023-03-03T00:30:46;75.83;;;36.23;;
20776;SDS011;10548;47.504;8.248;2023-03-03T00:33:24;76.37;;;37.17;;
20776;SDS011;10548;47.504;8.248;2023-03-03T00:41:58;74.60;;;36.10;;
20776;SDS011;10548;47.504;8.248;2023-03-03T00:44:32;79.47;;;37.87;;
20776;SDS011;10548;47.504;8.248;2023-03-03T00:49:48;74.93;;;38.60;;
20776;SDS011;10548;47.504;8.248;2023-03-03T00:52:16;81.60;;;41.33;;
20776;SDS011;10548;47.504;8.248;2023-03-03T00:54:44;82.50;;;38.70;;
20776;SDS011;10548;47.504;8.248;2023-03-03T00:57:12;76.17;;;38.17;;
20776;SDS011;10548;47.504;8.248;2023-03-03T00:59:40;79.40;;;37.43;;
20776;SDS011;10548;47.504;8.248;2023-03-03T01:02:08;79.17;;;39.90;;
20776;SDS011;10548;47.504;8.248;2023-03-03T01:04:36;85.43;;;40.53;;
20776;SDS011;10548;47.504;8.248;2023-03-03T01:07:04;78.00;;;39.07;;
20776;SDS011;10548;47.504;8.248;2023-03-03T01:09:31;76.63;;;38.90;;
20776;SDS011;10548;47.504;8.248;2023-03-03T01:11:59;78.10;;;39.27;;
20776;SDS011;10548;47.504;8.248;2023-03-03T01:14:26;81.23;;;41.10;;
20776;SDS011;10548;47.504;8.248;2023-03-03T01:16:54;80.17;;;40.60;;
20776;SDS011;10548;47.504;8.248;2023-03-03T01:19:21;83.20;;;41.83;;
20776;SDS011;10548;47.504;8.248;2023-03-03T01:21:49;86.83;;;40.23;;
20776;SDS011;10548;47.504;8.248;2023-03-03T01:24:17;83.43;;;40.90;;
20776;SDS011;10548;47.504;8.248;2023-03-03T01:26:44;81.70;;;41.37;;
20776;SDS011;10548;47.504;8.248;2023-03-03T01:29:12;76.33;;;38.90;;
20776;SDS011;10548;47.504;8.248;2023-03-03T01:31:39;81.57;;;38.27;;
20776;SDS011;10548;47.504;8.248;2023-03-03T01:34:07;86.90;;;41.07;;
20776;SDS011;10548;47.504;8.248;2023-03-03T01:36:35;87.70;;;41.27;;
20776;SDS011;10548;47.504;8.248;2023-03-03T01:39:02;77.73;;;38.10;;
20776;SDS011;10548;47.504;8.248;2023-03-03T01:41:30;89.13;;;40.10;;
20776;SDS011;10548;47.504;8.248;2023-03-03T01:43:59;80.53;;;41.07;;
20776;SDS011;10548;47.504;8.248;2023-03-03T01:46:36;79.53;;;39.70;;
20776;SDS011;10548;47.504;8.248;2023-03-03T01:49:12;83.37;;;40.67;;
20776;SDS011;10548;47.504;8.248;2023-03-03T01:51:42;82.27;;;40.13;;
20776;SDS011;10548;47.504;8.248;2023-03-03T01:54:15;82.37;;;40.07;;
20776;SDS011;10548;47.504;8.248;2023-03-03T01:56:44;78.80;;;39.23;;
20776;SDS011;10548;47.504;8.248;2023-03-03T01:59:13;85.77;;;41.53;;
20776;SDS011;10548;47.504;8.248;2023-03-03T02:01:42;82.90;;;38.37;;
20776;SDS011;10548;47.504;8.248;2023-03-03T02:04:09;85.70;;;41.23;;
20776;SDS011;10548;47.504;8.248;2023-03-03T02:06:38;80.63;;;40.13;;
20776;SDS011;10548;47.504;8.248;2023-03-03T02:09:09;85.37;;;41.33;;
20776;SDS011;10548;47.504;8.248;2023-03-03T02:11:38;79.90;;;40.33;;
20776;SDS011;10548;47.504;8.248;2023-03-03T02:14:09;86.37;;;40.20;;
20776;SDS011;10548;47.504;8.248;2023-03-03T02:16:41;81.87;;;40.83;;
20776;SDS011;10548;47.504;8.248;2023-03-03T02:19:12;81.47;;;40.07;;
20776;SDS011;10548;47.504;8.248;2023-03-03T02:21:42;81.80;;;42.23;;
20776;SDS011;10548;47.504;8.248;2023-03-03T02:27:13;84.27;;;40.23;;
20776;SDS011;10548;47.504;8.248;2023-03-03T02:29:42;80.17;;;40.47;;
20776;SDS011;10548;47.504;8.248;2023-03-03T02:32:09;84.47;;;40.73;;
20776;SDS011;10548;47.504;8.248;2023-03-03T02:34:47;76.20;;;38.43;;
20776;SDS011;10548;47.504;8.248;2023-03-03T02:37:15;82.77;;;39.53;;
20776;SDS011;10548;47.504;8.248;2023-03-03T02:39:43;79.90;;;40.17;;
20776;SDS011;10548;47.504;8.248;2023-03-03T02:42:15;85.13;;;41.50;;
20776;SDS011;10548;47.504;8.248;2023-03-03T02:44:49;82.07;;;40.23;;
20776;SDS011;10548;47.504;8.248;2023-03-03T02:47:16;80.67;;;40.47;;
20776;SDS011;10548;47.504;8.248;2023-03-03T02:49:44;86.93;;;40.53;;
20776;SDS011;10548;47.504;8.248;2023-03-03T02:52:12;83.37;;;39.87;;
20776;SDS011;10548;47.504;8.248;2023-03-03T02:54:43;77.37;;;38.47;;
20776;SDS011;10548;47.504;8.248;2023-03-03T02:57:11;78.83;;;39.17;;
20776;SDS011;10548;47.504;8.248;2023-03-03T02:59:39;80.40;;;40.27;;
20776;SDS011;10548;47.504;8.248;2023-03-03T03:02:10;85.20;;;40.70;;
20776;SDS011;10548;47.504;8.248;2023-03-03T03:04:37;84.00;;;42.47;;
20776;SDS011;10548;47.504;8.248;2023-03-03T03:07:05;86.03;;;42.67;;
20776;SDS011;10548;47.504;8.248;2023-03-03T03:09:35;83.27;;;40.00;;
20776;SDS011;10548;47.504;8.248;2023-03-03T03:12:03;84.50;;;41.97;;
20776;SDS011;10548;47.504;8.248;2023-03-03T03:14:32;84.07;;;40.60;;
20776;SDS011;10548;47.504;8.248;2023-03-03T03:17:00;82.73;;;41.77;;
20776;SDS011;10548;47.504;8.248;2023-03-03T03:19:28;85.07;;;42.40;;
20776;SDS011;10548;47.504;8.248;2023-03-03T03:21:59;95.63;;;45.40;;
20776;SDS011;10548;47.504;8.248;2023-03-03T03:24:28;90.53;;;41.63;;
20776;SDS011;10548;47.504;8.248;2023-03-03T03:27:00;84.13;;;42.50;;
20776;SDS011;10548;47.504;8.248;2023-03-03T03:29:28;87.00;;;40.37;;
20776;SDS011;10548;47.504;8.248;2023-03-03T03:31:55;85.60;;;43.27;;
20776;SDS011;10548;47.504;8.248;2023-03-03T03:34:23;87.33;;;42.03;;
20776;SDS011;10548;47.504;8.248;2023-03-03T03:36:52;83.93;;;41.60;;
20776;SDS011;10548;47.504;8.248;2023-03-03T03:39:22;82.13;;;41.17;;
20776;SDS011;10548;47.504;8.248;2023-03-03T03:41:51;83.67;;;41.40;;
20776;SDS011;10548;47.504;8.248;2023-03-03T03:44:19;84.43;;;41.60;;
20776;SDS011;10548;47.504;8.248;2023-03-03T03:46:47;87.57;;;43.17;;
20776;SDS011;10548;47.504;8.248;2023-03-03T03:49:14;86.43;;;42.00;;
20776;SDS011;10548;47.504;8.248;2023-03-03T03:51:44;86.97;;;44.37;;
20776;SDS011;10548;47.504;8.248;2023-03-03T03:54:14;84.23;;;41.50;;
20776;SDS011;10548;47.504;8.248;2023-03-03T03:56:42;88.37;;;43.60;;
20776;SDS011;10548;47.504;8.248;2023-03-03T03:59:10;85.33;;;42.67;;
20776;SDS011;10548;47.504;8.248;2023-03-03T04:01:37;80.17;;;41.30;;
20776;SDS011;10548;47.504;8.248;2023-03-03T04:04:05;88.30;;;42.80;;
20776;SDS011;10548;47.504;8.248;2023-03-03T04:06:33;93.43;;;42.97;;
20776;SDS011;10548;47.504;8.248;2023-03-03T04:09:02;92.33;;;44.00;;
20776;SDS011;10548;47.504;8.248;2023-03-03T04:11:30;90.60;;;44.53;;
20776;SDS011;10548;47.504;8.248;2023-03-03T04:13:58;84.77;;;42.07;;
20776;SDS011;10548;47.504;8.248;2023-03-03T04:16:26;87.10;;;43.30;;
20776;SDS011;10548;47.504;8.248;2023-03-03T04:18:54;88.53;;;43.57;;
20776;SDS011;10548;47.504;8.248;2023-03-03T04:21:22;87.73;;;42.80;;
20776;SDS011;10548;47.504;8.248;2023-03-03T04:23:52;90.90;;;43.77;;
20776;SDS011;10548;47.504;8.248;2023-03-03T04:26:20;86.30;;;41.33;;
20776;SDS011;10548;47.504;8.248;2023-03-03T04:28:48;84.83;;;43.10;;
20776;SDS011;10548;47.504;8.248;2023-03-03T04:31:16;82.23;;;42.03;;
20776;SDS011;10548;47.504;8.248;2023-03-03T04:33:43;85.77;;;42.57;;
20776;SDS011;10548;47.504;8.248;2023-03-03T04:36:11;83.93;;;41.13;;
20776;SDS011;10548;47.504;8.248;2023-03-03T04:38:39;87.87;;;43.03;;
20776;SDS011;10548;47.504;8.248;2023-03-03T04:41:07;79.73;;;40.37;;
20776;SDS011;10548;47.504;8.248;2023-03-03T04:43:37;82.10;;;40.83;;
20776;SDS011;10548;47.504;8.248;2023-03-03T04:46:05;88.70;;;44.40;;
20776;SDS011;10548;47.504;8.248;2023-03-03T04:48:35;92.33;;;43.43;;
20776;SDS011;10548;47.504;8.248;2023-03-03T04:51:04;87.53;;;43.70;;
20776;SDS011;10548;47.504;8.248;2023-03-03T04:53:33;89.77;;;43.50;;
20776;SDS011;10548;47.504;8.248;2023-03-03T04:56:02;87.37;;;42.63;;
20776;SDS011;10548;47.504;8.248;2023-03-03T04:58:30;86.20;;;43.70;;
20776;SDS011;10548;47.504;8.248;2023-03-03T05:00:57;90.47;;;43.43;;
20776;SDS011;10548;47.504;8.248;2023-03-03T05:03:27;88.17;;;43.07;;
20776;SDS011;10548;47.504;8.248;2023-03-03T05:05:55;84.73;;;42.30;;
20776;SDS011;10548;47.504;8.248;2023-03-03T05:08:22;92.90;;;43.20;;
20776;SDS011;10548;47.504;8.248;2023-03-03T05:10:50;83.73;;;42.23;;
20776;SDS011;10548;47.504;8.248;2023-03-03T05:13:18;100.40;;;45.50;;
20776;SDS011;10548;47.504;8.248;2023-03-03T05:15:49;90.33;;;45.17;;
20776;SDS011;10548;47.504;8.248;2023-03-03T05:18:18;81.17;;;41.37;;
20776;SDS011;10548;47.504;8.248;2023-03-03T05:20:45;91.50;;;42.80;;
20776;SDS011;10548;47.504;8.248;2023-03-03T05:23:13;84.07;;;41.50;;
20776;SDS011;10548;47.504;8.248;2023-03-03T05:25:41;84.73;;;42.33;;
20776;SDS011;10548;47.504;8.248;2023-03-03T05:28:08;88.37;;;42.40;;
20776;SDS011;10548;47.504;8.248;2023-03-03T05:30:36;87.80;;;42.67;;
20776;SDS011;10548;47.504;8.248;2023-03-03T05:33:03;86.33;;;42.13;;
20776;SDS011;10548;47.504;8.248;2023-03-03T05:35:31;84.37;;;42.60;;
20776;SDS011;10548;47.504;8.248;2023-03-03T05:37:59;86.90;;;41.90;;
20776;SDS011;10548;47.504;8.248;2023-03-03T05:40:30;81.87;;;41.47;;
20776;SDS011;10548;47.504;8.248;2023-03-03T05:42:58;91.93;;;44.07;;
20776;SDS011;10548;47.504;8.248;2023-03-03T05:45:25;89.50;;;42.60;;
20776;SDS011;10548;47.504;8.248;2023-03-03T05:47:53;90.73;;;43.23;;
20776;SDS011;10548;47.504;8.248;2023-03-03T05:50:21;83.57;;;42.77;;
20776;SDS011;10548;47.504;8.248;2023-03-03T05:52:49;81.03;;;39.97;;
20776;SDS011;10548;47.504;8.248;2023-03-03T05:55:17;83.57;;;42.60;;
20776;SDS011;10548;47.504;8.248;2023-03-03T05:57:45;84.33;;;41.87;;
20776;SDS011;10548;47.504;8.248;2023-03-03T06:00:13;86.20;;;41.47;;
20776;SDS011;10548;47.504;8.248;2023-03-03T06:02:41;82.83;;;42.60;;
20776;SDS011;10548;47.504;8.248;2023-03-03T06:05:08;85.10;;;40.47;;
20776;SDS011;10548;47.504;8.248;2023-03-03T06:07:37;90.53;;;42.97;;
20776;SDS011;10548;47.504;8.248;2023-03-03T06:10:05;95.50;;;45.93;;
20776;SDS011;10548;47.504;8.248;2023-03-03T06:12:35;92.83;;;44.90;;
20776;SDS011;10548;47.504;8.248;2023-03-03T06:15:05;86.63;;;43.23;;
20776;SDS011;10548;47.504;8.248;2023-03-03T06:17:33;88.30;;;44.70;;
20776;SDS011;10548;47.504;8.248;2023-03-03T06:20:00;89.70;;;41.83;;
20776;SDS011;10548;47.504;8.248;2023-03-03T06:22:29;90.07;;;44.87;;
20776;SDS011;10548;47.504;8.248;2023-03-03T06:24:57;89.67;;;43.47;;
20776;SDS011;10548;47.504;8.248;2023-03-03T06:27:25;97.17;;;43.80;;
20776;SDS011;10548;47.504;8.248;2023-03-03T06:29:52;89.07;;;43.23;;
20776;SDS011;10548;47.504;8.248;2023-03-03T06:32:20;85.63;;;43.03;;
20776;SDS011;10548;47.504;8.248;2023-03-03T06:34:47;82.13;;;42.77;;
20776;SDS011;10548;47.504;8.248;2023-03-03T06:37:15;84.87;;;41.70;;
20776;SDS011;10548;47.504;8.248;2023-03-03T06:39:42;85.77;;;41.77;;
20776;SDS011;10548;47.504;8.248;2023-03-03T06:42:10;86.73;;;44.13;;
20776;SDS011;10548;47.504;8.248;2023-03-03T06:44:38;87.93;;;42.30;;
20776;SDS011;10548;47.504;8.248;2023-03-03T06:47:05;88.93;;;42.23;;
20776;SDS011;10548;47.504;8.248;2023-03-03T06:49:33;90.53;;;43.63;;
20776;SDS011;10548;47.504;8.248;2023-03-03T06:52:01;89.47;;;41.47;;
20776;SDS011;10548;47.504;8.248;2023-03-03T06:54:36;90.67;;;44.27;;
20776;SDS011;10548;47.504;8.248;2023-03-03T06:57:09;89.67;;;44.47;;
20776;SDS011;10548;47.504;8.248;2023-03-03T06:59:41;90.73;;;43.43;;
20776;SDS011;10548;47.504;8.248;2023-03-03T07:02:13;80.60;;;42.97;;
20776;SDS011;10548;47.504;8.248;2023-03-03T07:04:43;81.27;;;43.20;;
20776;SDS011;10548;47.504;8.248;2023-03-03T07:07:17;91.20;;;42.53;;
20776;SDS011;10548;47.504;8.248;2023-03-03T07:09:47;80.90;;;43.30;;
20776;SDS011;10548;47.504;8.248;2023-03-03T07:12:15;90.47;;;43.00;;
20776;SDS011;10548;47.504;8.248;2023-03-03T07:14:46;86.67;;;42.23;;
20776;SDS011;10548;47.504;8.248;2023-03-03T07:17:18;91.83;;;44.30;;
20776;SDS011;10548;47.504;8.248;2023-03-03T07:19:46;81.30;;;41.80;;
20776;SDS011;10548;47.504;8.248;2023-03-03T07:22:21;92.63;;;43.23;;
20776;SDS011;10548;47.504;8.248;2023-03-03T07:24:51;85.77;;;42.63;;
20776;SDS011;10548;47.504;8.248;2023-03-03T07:27:26;86.40;;;42.23;;
20776;SDS011;10548;47.504;8.248;2023-03-03T07:29:59;83.77;;;43.30;;
20776;SDS011;10548;47.504;8.248;2023-03-03T07:32:39;89.13;;;43.77;;
20776;SDS011;10548;47.504;8.248;2023-03-03T07:38:24;79.50;;;40.30;;
20776;SDS011;10548;47.504;8.248;2023-03-03T07:40:57;76.37;;;39.37;;
20776;SDS011;10548;47.504;8.248;2023-03-03T07:43:35;82.63;;;41.73;;
20776;SDS011;10548;47.504;8.248;2023-03-03T07:46:40;81.67;;;41.27;;
20776;SDS011;10548;47.504;8.248;2023-03-03T07:48:57;83.20;;;41.87;;
20776;SDS011;10548;47.504;8.248;2023-03-03T07:51:31;88.13;;;42.93;;
20776;SDS011;10548;47.504;8.248;2023-03-03T07:59:45;73.13;;;39.77;;
20776;SDS011;10548;47.504;8.248;2023-03-03T08:05:11;84.73;;;41.80;;
20776;SDS011;10548;47.504;8.248;2023-03-03T08:07:48;79.23;;;40.83;;
20776;SDS011;10548;47.504;8.248;2023-03-03T08:10:59;79.73;;;41.17;;
20776;SDS011;10548;47.504;8.248;2023-03-03T08:13:19;83.77;;;41.83;;
20776;SDS011;10548;47.504;8.248;2023-03-03T08:15:58;83.33;;;41.50;;
20776;SDS011;10548;47.504;8.248;2023-03-03T08:18:28;81.27;;;41.60;;
20776;SDS011;10548;47.504;8.248;2023-03-03T08:20:57;77.60;;;40.33;;
20776;SDS011;10548;47.504;8.248;2023-03-03T08:23:25;82.10;;;42.63;;
20776;SDS011;10548;47.504;8.248;2023-03-03T08:25:52;83.10;;;42.37;;
20776;SDS011;10548;47.504;8.248;2023-03-03T08:28:20;89.20;;;42.33;;
20776;SDS011;10548;47.504;8.248;2023-03-03T08:30:48;81.70;;;41.70;;
20776;SDS011;10548;47.504;8.248;2023-03-03T08:33:16;75.17;;;41.20;;
20776;SDS011;10548;47.504;8.248;2023-03-03T08:35:44;77.37;;;40.40;;
20776;SDS011;10548;47.504;8.248;2023-03-03T08:38:13;80.80;;;40.53;;
20776;SDS011;10548;47.504;8.248;2023-03-03T08:40:41;82.97;;;42.43;;
20776;SDS011;10548;47.504;8.248;2023-03-03T08:43:08;79.30;;;42.50;;
20776;SDS011;10548;47.504;8.248;2023-03-03T08:45:36;81.10;;;40.43;;
20776;SDS011;10548;47.504;8.248;2023-03-03T08:48:04;75.93;;;39.90;;
20776;SDS011;10548;47.504;8.248;2023-03-03T08:50:31;81.97;;;40.97;;
20776;SDS011;10548;47.504;8.248;2023-03-03T08:52:59;80.57;;;41.67;;
20776;SDS011;10548;47.504;8.248;2023-03-03T08:55:26;80.80;;;42.00;;
20776;SDS011;10548;47.504;8.248;2023-03-03T08:57:54;86.27;;;44.43;;
20776;SDS011;10548;47.504;8.248;2023-03-03T09:00:22;85.50;;;42.27;;
20776;SDS011;10548;47.504;8.248;2023-03-03T09:02:49;76.83;;;41.40;;
20776;SDS011;10548;47.504;8.248;2023-03-03T09:05:17;78.43;;;40.50;;
20776;SDS011;10548;47.504;8.248;2023-03-03T09:07:45;76.80;;;39.40;;
20776;SDS011;10548;47.504;8.248;2023-03-03T09:10:16;74.73;;;39.23;;
20776;SDS011;10548;47.504;8.248;2023-03-03T09:12:44;79.43;;;40.80;;
20776;SDS011;10548;47.504;8.248;2023-03-03T09:15:18;75.27;;;40.57;;
20776;SDS011;10548;47.504;8.248;2023-03-03T09:17:46;76.90;;;40.33;;
20776;SDS011;10548;47.504;8.248;2023-03-03T09:20:26;83.43;;;42.40;;
20776;SDS011;10548;47.504;8.248;2023-03-03T09:22:54;79.03;;;40.67;;
20776;SDS011;10548;47.504;8.248;2023-03-03T09:25:26;82.20;;;40.90;;
20776;SDS011;10548;47.504;8.248;2023-03-03T09:27:56;82.43;;;41.43;;
20776;SDS011;10548;47.504;8.248;2023-03-03T09:30:37;77.67;;;39.80;;
20776;SDS011;10548;47.504;8.248;2023-03-03T09:33:24;75.93;;;40.57;;
20776;SDS011;10548;47.504;8.248;2023-03-03T09:36:03;76.10;;;40.93;;
20776;SDS011;10548;47.504;8.248;2023-03-03T09:38:32;79.37;;;39.30;;
20776;SDS011;10548;47.504;8.248;2023-03-03T09:42:05;78.17;;;42.13;;
20776;SDS011;10548;47.504;8.248;2023-03-03T09:44:13;76.40;;;42.23;;
20776;SDS011;10548;47.504;8.248;2023-03-03T09:46:46;75.37;;;40.53;;
20776;SDS011;10548;47.504;8.248;2023-03-03T09:49:30;80.13;;;42.47;;
20776;SDS011;10548;47.504;8.248;2023-03-03T09:52:02;78.40;;;42.00;;
20776;SDS011;10548;47.504;8.248;2023-03-03T09:54:38;77.40;;;39.73;;
20776;SDS011;10548;47.504;8.248;2023-03-03T09:57:27;78.17;;;41.83;;
20776;SDS011;10548;47.504;8.248;2023-03-03T10:03:02;80.90;;;41.40;;
20776;SDS011;10548;47.504;8.248;2023-03-03T10:05:48;78.53;;;43.33;;
20776;SDS011;10548;47.504;8.248;2023-03-03T10:11:09;86.40;;;41.07;;
20776;SDS011;10548;47.504;8.248;2023-03-03T10:13:44;81.70;;;42.10;;
20776;SDS011;10548;47.504;8.248;2023-03-03T10:16:40;77.00;;;41.13;;
20776;SDS011;10548;47.504;8.248;2023-03-03T10:22:10;81.47;;;43.10;;
20776;SDS011;10548;47.504;8.248;2023-03-03T10:27:47;75.63;;;41.30;;
20776;SDS011;10548;47.504;8.248;2023-03-03T10:30:39;80.77;;;42.47;;
20776;SDS011;10548;47.504;8.248;2023-03-03T10:33:32;79.77;;;40.40;;
20776;SDS011;10548;47.504;8.248;2023-03-03T10:38:55;76.47;;;43.30;;
20776;SDS011;10548;47.504;8.248;2023-03-03T10:41:43;79.30;;;43.00;;
20776;SDS011;10548;47.504;8.248;2023-03-03T10:44:37;93.43;;;43.57;;
20776;SDS011;10548;47.504;8.248;2023-03-03T10:50:13;74.33;;;42.87;;
20776;SDS011;10548;47.504;8.248;2023-03-03T10:55:56;78.23;;;42.43;;
20776;SDS011;10548;47.504;8.248;2023-03-03T11:01:49;73.13;;;42.77;;
20776;SDS011;10548;47.504;8.248;2023-03-03T11:05:21;78.53;;;43.40;;
20776;SDS011;10548;47.504;8.248;2023-03-03T11:07:34;73.33;;;41.93;;
20776;SDS011;10548;47.504;8.248;2023-03-03T11:13:08;73.93;;;41.87;;
20776;SDS011;10548;47.504;8.248;2023-03-03T11:17:12;71.07;;;41.83;;
20776;SDS011;10548;47.504;8.248;2023-03-03T11:25:07;79.07;;;43.90;;
20776;SDS011;10548;47.504;8.248;2023-03-03T11:27:08;77.03;;;43.73;;
20776;SDS011;10548;47.504;8.248;2023-03-03T11:30:17;75.10;;;42.57;;
20776;SDS011;10548;47.504;8.248;2023-03-03T11:38:32;68.50;;;41.83;;
20776;SDS011;10548;47.504;8.248;2023-03-03T11:41:01;71.20;;;41.77;;
20776;SDS011;10548;47.504;8.248;2023-03-03T11:43:33;70.47;;;42.20;;
20776;SDS011;10548;47.504;8.248;2023-03-03T11:46:23;75.13;;;43.67;;
20776;SDS011;10548;47.504;8.248;2023-03-03T11:49:02;77.60;;;42.17;;
20776;SDS011;10548;47.504;8.248;2023-03-03T11:51:42;69.73;;;41.70;;
20776;SDS011;10548;47.504;8.248;2023-03-03T11:54:23;71.10;;;42.33;;
20776;SDS011;10548;47.504;8.248;2023-03-03T11:56:57;72.70;;;41.07;;
20776;SDS011;10548;47.504;8.248;2023-03-03T12:02:25;81.97;;;47.27;;
20776;SDS011;10548;47.504;8.248;2023-03-03T12:05:05;73.47;;;42.30;;
20776;SDS011;10548;47.504;8.248;2023-03-03T12:07:40;76.47;;;43.70;;
20776;SDS011;10548;47.504;8.248;2023-03-03T12:10:36;76.47;;;45.47;;
20776;SDS011;10548;47.504;8.248;2023-03-03T12:13:05;81.07;;;42.73;;
20776;SDS011;10548;47.504;8.248;2023-03-03T12:15:54;78.70;;;44.97;;
20776;SDS011;10548;47.504;8.248;2023-03-03T12:18:42;76.40;;;44.67;;
20776;SDS011;10548;47.504;8.248;2023-03-03T12:24:24;66.43;;;42.93;;
20776;SDS011;10548;47.504;8.248;2023-03-03T12:27:00;74.23;;;44.97;;
20776;SDS011;10548;47.504;8.248;2023-03-03T12:30:17;67.30;;;42.63;;
20776;SDS011;10548;47.504;8.248;2023-03-03T12:41:43;68.70;;;43.70;;
20776;SDS011;10548;47.504;8.248;2023-03-03T12:43:53;76.07;;;44.40;;
20776;SDS011;10548;47.504;8.248;2023-03-03T12:46:23;68.90;;;42.77;;
20776;SDS011;10548;47.504;8.248;2023-03-03T12:48:55;68.00;;;41.83;;
20776;SDS011;10548;47.504;8.248;2023-03-03T12:54:24;70.90;;;43.37;;
20776;SDS011;10548;47.504;8.248;2023-03-03T13:00:26;67.20;;;41.17;;
20776;SDS011;10548;47.504;8.248;2023-03-03T13:03:14;69.10;;;41.10;;
20776;SDS011;10548;47.504;8.248;2023-03-03T13:06:00;62.73;;;40.90;;
20776;SDS011;10548;47.504;8.248;2023-03-03T13:08:43;69.77;;;44.20;;
20776;SDS011;10548;47.504;8.248;2023-03-03T13:11:26;69.07;;;43.13;;
20776;SDS011;10548;47.504;8.248;2023-03-03T13:19:39;68.20;;;42.73;;
20776;SDS011;10548;47.504;8.248;2023-03-03T13:22:29;70.07;;;42.73;;
20776;SDS011;10548;47.504;8.248;2023-03-03T13:25:01;68.60;;;43.67;;
20776;SDS011;10548;47.504;8.248;2023-03-03T13:27:35;69.23;;;43.87;;
20776;SDS011;10548;47.504;8.248;2023-03-03T13:30:23;70.83;;;44.53;;
20776;SDS011;10548;47.504;8.248;2023-03-03T13:32:59;72.47;;;43.33;;
20776;SDS011;10548;47.504;8.248;2023-03-03T13:35:42;72.23;;;45.20;;
20776;SDS011;10548;47.504;8.248;2023-03-03T13:38:16;72.20;;;44.43;;
20776;SDS011;10548;47.504;8.248;2023-03-03T13:40:45;71.57;;;40.77;;
20776;SDS011;10548;47.504;8.248;2023-03-03T13:43:18;66.00;;;41.93;;
20776;SDS011;10548;47.504;8.248;2023-03-03T13:48:54;69.37;;;43.53;;
20776;SDS011;10548;47.504;8.248;2023-03-03T13:53:24;67.20;;;42.50;;
20776;SDS011;10548;47.504;8.248;2023-03-03T13:54:46;71.80;;;44.17;;
20776;SDS011;10548;47.504;8.248;2023-03-03T14:00:11;65.27;;;42.40;;
20776;SDS011;10548;47.504;8.248;2023-03-03T14:02:54;70.87;;;43.90;;
20776;SDS011;10548;47.504;8.248;2023-03-03T14:05:35;76.63;;;44.20;;
20776;SDS011;10548;47.504;8.248;2023-03-03T14:08:09;71.70;;;42.67;;
20776;SDS011;10548;47.504;8.248;2023-03-03T14:10:47;66.20;;;42.37;;
20776;SDS011;10548;47.504;8.248;2023-03-03T14:13:19;72.13;;;42.47;;
20776;SDS011;10548;47.504;8.248;2023-03-03T14:15:54;72.00;;;42.90;;
20776;SDS011;10548;47.504;8.248;2023-03-03T14:18:27;65.50;;;41.93;;
20776;SDS011;10548;47.504;8.248;2023-03-03T14:21:15;76.30;;;41.23;;
20776;SDS011;10548;47.504;8.248;2023-03-03T14:23:50;68.63;;;42.93;;
20776;SDS011;10548;47.504;8.248;2023-03-03T14:26:22;65.97;;;41.30;;
20776;SDS011;10548;47.504;8.248;2023-03-03T14:28:50;65.97;;;43.53;;
20776;SDS011;10548;47.504;8.248;2023-03-03T14:31:25;67.40;;;42.03;;
20776;SDS011;10548;47.504;8.248;2023-03-03T14:34:00;69.23;;;42.03;;
20776;SDS011;10548;47.504;8.248;2023-03-03T14:36:32;68.27;;;42.73;;
20776;SDS011;10548;47.504;8.248;2023-03-03T14:39:07;67.33;;;39.10;;
20776;SDS011;10548;47.504;8.248;2023-03-03T14:41:50;71.97;;;40.87;;
20776;SDS011;10548;47.504;8.248;2023-03-03T14:44:34;65.67;;;41.50;;
20776;SDS011;10548;47.504;8.248;2023-03-03T14:49:57;69.57;;;39.97;;
20776;SDS011;10548;47.504;8.248;2023-03-03T14:52:29;67.73;;;40.67;;
20776;SDS011;10548;47.504;8.248;2023-03-03T14:55:00;66.43;;;38.67;;
20776;SDS011;10548;47.504;8.248;2023-03-03T15:00:27;59.63;;;37.30;;
20776;SDS011;10548;47.504;8.248;2023-03-03T15:05:53;61.90;;;36.17;;
20776;SDS011;10548;47.504;8.248;2023-03-03T15:08:33;71.30;;;39.43;;
20776;SDS011;10548;47.504;8.248;2023-03-03T15:11:25;63.07;;;36.27;;
20776;SDS011;10548;47.504;8.248;2023-03-03T15:14:03;64.63;;;38.33;;
20776;SDS011;10548;47.504;8.248;2023-03-03T15:16:30;77.47;;;38.83;;
20776;SDS011;10548;47.504;8.248;2023-03-03T15:19:09;62.73;;;37.67;;
20776;SDS011;10548;47.504;8.248;2023-03-03T15:21:42;62.63;;;37.73;;
20776;SDS011;10548;47.504;8.248;2023-03-03T15:24:25;65.20;;;35.50;;
20776;SDS011;10548;47.504;8.248;2023-03-03T15:27:00;62.33;;;36.83;;
20776;SDS011;10548;47.504;8.248;2023-03-03T15:29:31;62.77;;;37.87;;
20776;SDS011;10548;47.504;8.248;2023-03-03T15:32:16;57.70;;;35.13;;
20776;SDS011;10548;47.504;8.248;2023-03-03T15:37:37;63.03;;;36.77;;
20776;SDS011;10548;47.504;8.248;2023-03-03T15:40:20;63.50;;;38.10;;
20776;SDS011;10548;47.504;8.248;2023-03-03T15:54:29;63.07;;;36.73;;
20776;SDS011;10548;47.504;8.248;2023-03-03T15:57:04;58.63;;;35.10;;
20776;SDS011;10548;47.504;8.248;2023-03-03T15:59:44;62.37;;;38.17;;
20776;SDS011;10548;47.504;8.248;2023-03-03T16:02:20;70.03;;;39.83;;
20776;SDS011;10548;47.504;8.248;2023-03-03T16:04:58;59.30;;;37.10;;
20776;SDS011;10548;47.504;8.248;2023-03-03T16:07:38;63.67;;;40.80;;
20776;SDS011;10548;47.504;8.248;2023-03-03T16:13:19;62.07;;;37.97;;
20776;SDS011;10548;47.504;8.248;2023-03-03T16:24:31;59.13;;;36.83;;
20776;SDS011;10548;47.504;8.248;2023-03-03T16:27:26;59.87;;;37.20;;
20776;SDS011;10548;47.504;8.248;2023-03-03T16:30:18;64.07;;;37.30;;
20776;SDS011;10548;47.504;8.248;2023-03-03T16:34:18;61.80;;;37.37;;
20776;SDS011;10548;47.504;8.248;2023-03-03T16:35:43;62.27;;;35.67;;
20776;SDS011;10548;47.504;8.248;2023-03-03T16:38:20;67.03;;;36.83;;
20776;SDS011;10548;47.504;8.248;2023-03-03T16:40:51;66.27;;;37.27;;
20776;SDS011;10548;47.504;8.248;2023-03-03T16:46:44;64.77;;;37.00;;
20776;SDS011;10548;47.504;8.248;2023-03-03T16:56:39;62.83;;;35.93;;
20776;SDS011;10548;47.504;8.248;2023-03-03T17:04:38;61.93;;;35.03;;
20776;SDS011;10548;47.504;8.248;2023-03-03T17:07:33;66.93;;;35.77;;
20776;SDS011;10548;47.504;8.248;2023-03-03T17:16:01;63.37;;;34.30;;
20776;SDS011;10548;47.504;8.248;2023-03-03T17:21:44;62.20;;;34.37;;
20776;SDS011;10548;47.504;8.248;2023-03-03T17:36:18;56.60;;;33.53;;
20776;SDS011;10548;47.504;8.248;2023-03-03T17:38:51;61.60;;;37.30;;
20776;SDS011;10548;47.504;8.248;2023-03-03T17:41:27;58.73;;;32.80;;
20776;SDS011;10548;47.504;8.248;2023-03-03T17:44:11;59.63;;;35.47;;